Time;durP1;ratioP1;P1;durP2;ratioP2;P2;SDS_P1;SDS_P2;PMS_P1;PMS_P2;Temp;Humidity;BMP_temperature;BMP_pressure;BME280_temperature;BME280_humidity;BME280_pressure;Samples;Min_cycle;Max_cycle;Signal;HPM_P1;HPM_P2
2023/05/17 00:01:34;;;;;;;5.07;2.03;;;9.20;99.90;;;;;;4994442;28;20030;-49
2023/05/17 00:03:59;;;;;;;5.03;1.70;;;9.20;99.90;;;;;;4994734;28;20113;-49
2023/05/17 00:06:25;;;;;;;3.60;1.67;;;9.10;99.90;;;;;;4994312;28;20124;-49
2023/05/17 00:08:51;;;;;;;3.93;1.50;;;9.10;99.90;;;;;;4994471;28;20026;-50
2023/05/17 00:11:17;;;;;;;4.27;1.80;;;9.00;99.90;;;;;;4994279;28;20058;-50
2023/05/17 00:13:42;;;;;;;4.67;1.77;;;9.00;99.90;;;;;;4994035;28;20542;-50
2023/05/17 00:16:08;;;;;;;4.40;1.57;;;8.90;99.90;;;;;;4994489;28;20222;-50
2023/05/17 00:18:34;;;;;;;3.80;1.67;;;8.90;99.90;;;;;;4994264;28;20034;-49
2023/05/17 00:20:59;;;;;;;4.63;1.70;;;8.90;99.90;;;;;;4994044;28;20471;-49
2023/05/17 00:23:25;;;;;;;5.63;1.70;;;8.90;99.90;;;;;;4992672;28;20030;-49
2023/05/17 00:25:51;;;;;;;6.57;1.80;;;8.90;99.90;;;;;;4994255;28;20022;-50
2023/05/17 00:28:17;;;;;;;4.13;1.70;;;8.80;99.90;;;;;;4994031;28;20061;-50
2023/05/17 00:30:42;;;;;;;4.77;1.90;;;8.80;99.90;;;;;;4993805;28;20041;-50
2023/05/17 00:33:08;;;;;;;3.87;1.87;;;8.80;99.90;;;;;;4994023;28;20034;-49
2023/05/17 00:35:34;;;;;;;5.97;1.83;;;8.80;99.90;;;;;;4994067;28;20088;-50
2023/05/17 00:37:59;;;;;;;4.17;1.80;;;8.80;99.90;;;;;;4992648;28;20026;-50
2023/05/17 00:40:25;;;;;;;4.97;1.77;;;8.80;99.90;;;;;;4992478;28;20614;-52
2023/05/17 00:42:51;;;;;;;4.77;1.97;;;8.80;99.90;;;;;;4993519;28;20080;-48
2023/05/17 00:45:17;;;;;;;7.27;2.43;;;8.70;99.90;;;;;;4992476;28;20030;-48
2023/05/17 00:47:42;;;;;;;7.73;2.13;;;8.70;99.90;;;;;;4993856;28;20149;-51
2023/05/17 00:50:11;;;;;;;4.67;1.80;;;8.70;99.90;;;;;;4992297;28;20482;-50
2023/05/17 00:52:37;;;;;;;6.78;1.77;;;8.70;99.90;;;;;;4993527;28;20026;-48
2023/05/17 00:55:03;;;;;;;3.67;1.67;;;8.70;99.90;;;;;;4993631;28;20022;-48
2023/05/17 00:57:30;;;;;;;6.07;2.00;;;8.70;99.90;;;;;;4992330;28;20080;-50
2023/05/17 00:59:57;;;;;;;7.77;2.03;;;8.70;99.90;;;;;;4993782;28;20041;-49
2023/05/17 01:02:23;;;;;;;6.77;2.03;;;8.60;99.90;;;;;;4991926;28;20037;-49
2023/05/17 01:04:49;;;;;;;4.23;1.63;;;8.60;99.90;;;;;;4993593;28;20041;-50
2023/05/17 01:07:16;;;;;;;6.87;2.43;;;8.70;99.90;;;;;;4992266;28;20467;-48
2023/05/17 01:09:46;;;;;;;6.57;2.13;;;8.60;99.90;;;;;;4992259;28;20081;-48
2023/05/17 01:12:24;;;;;;;7.40;2.27;;;8.60;99.90;;;;;;4992654;28;20038;-48
2023/05/17 01:15:13;;;;;;;6.45;2.15;;;8.60;99.90;;;;;;4993677;28;20394;-48
2023/05/17 01:17:59;;;;;;;4.68;2.10;;;8.50;99.90;;;;;;4991925;28;20031;-49
2023/05/17 01:20:36;;;;;;;5.50;1.83;;;8.50;99.90;;;;;;4992923;28;20041;-52
2023/05/17 01:23:08;;;;;;;16.70;3.20;;;8.50;99.90;;;;;;4991854;28;20030;-48
2023/05/17 01:25:53;;;;;;;5.47;2.37;;;8.50;99.90;;;;;;4993150;28;20030;-48
2023/05/17 01:28:22;;;;;;;6.00;2.07;;;8.50;99.90;;;;;;4992973;28;20030;-51
2023/05/17 01:30:50;;;;;;;7.85;2.50;;;8.40;99.90;;;;;;4992816;28;20045;-49
2023/05/17 01:33:18;;;;;;;8.20;2.08;;;8.40;99.90;;;;;;4993000;28;20079;-48
2023/05/17 01:35:44;;;;;;;12.50;2.53;;;8.30;99.90;;;;;;4991467;28;20089;-50
2023/05/17 01:38:10;;;;;;;8.67;2.57;;;8.30;99.90;;;;;;4991687;28;20035;-48
2023/05/17 01:40:44;;;;;;;5.60;2.63;;;8.30;99.90;;;;;;4992673;28;20045;-51
2023/05/17 01:43:36;;;;;;;9.87;2.50;;;8.30;99.90;;;;;;4993079;28;20463;-49
2023/05/17 01:46:28;;;;;;;4.50;1.70;;;8.30;99.90;;;;;;4992864;28;20114;-48
2023/05/17 01:49:20;;;;;;;7.60;2.67;;;8.30;99.90;;;;;;4991603;28;20034;-49
2023/05/17 01:51:53;;;;;;;5.70;2.97;;;8.30;99.90;;;;;;4991310;28;20030;-48
2023/05/17 01:54:25;;;;;;;6.27;2.10;;;8.30;99.90;;;;;;4992613;28;20375;-49
2023/05/17 01:56:56;;;;;;;10.00;2.90;;;8.30;99.90;;;;;;4991337;28;20321;-48
2023/05/17 01:59:24;;;;;;;5.73;2.50;;;8.30;99.90;;;;;;4991483;28;20030;-49
2023/05/17 02:01:57;;;;;;;11.43;2.80;;;8.30;99.90;;;;;;4992332;28;20030;-49
2023/05/17 02:04:23;;;;;;;9.90;2.90;;;8.20;99.90;;;;;;4992894;28;20033;-48
2023/05/17 02:06:48;;;;;;;9.10;2.40;;;8.20;99.90;;;;;;4992551;28;20026;-50
2023/05/17 02:09:14;;;;;;;9.30;2.90;;;8.20;99.90;;;;;;4992856;28;20113;-50
2023/05/17 02:11:40;;;;;;;6.13;2.47;;;8.20;99.90;;;;;;4990872;28;20069;-48
2023/05/17 02:14:06;;;;;;;8.30;2.97;;;8.20;99.90;;;;;;4992398;28;20436;-49
2023/05/17 02:16:31;;;;;;;7.37;2.17;;;8.20;99.90;;;;;;4991006;28;20030;-48
2023/05/17 02:18:57;;;;;;;8.07;2.70;;;8.20;99.90;;;;;;4992418;28;20100;-49
2023/05/17 02:21:23;;;;;;;9.27;2.90;;;8.10;99.90;;;;;;4991873;28;20018;-49
2023/05/17 02:23:48;;;;;;;6.27;2.80;;;8.10;99.90;;;;;;4991015;28;20081;-49
2023/05/17 02:26:17;;;;;;;10.05;2.72;;;8.20;99.90;;;;;;4990808;28;20037;-48
2023/05/17 02:28:43;;;;;;;6.83;2.53;;;8.00;99.90;;;;;;4990811;28;20034;-48
2023/05/17 02:31:09;;;;;;;11.27;2.83;;;8.00;99.90;;;;;;4990585;28;20156;-49
2023/05/17 02:33:36;;;;;;;7.47;2.70;;;8.00;99.90;;;;;;4991890;28;20113;-49
2023/05/17 02:36:01;;;;;;;7.93;3.43;;;7.90;99.90;;;;;;4992262;28;20116;-49
2023/05/17 02:38:27;;;;;;;14.43;3.97;;;7.90;99.90;;;;;;4990608;28;20494;-48
2023/05/17 02:40:53;;;;;;;8.50;3.30;;;7.90;99.90;;;;;;4991636;28;20038;-48
2023/05/17 02:43:18;;;;;;;6.70;2.97;;;7.90;99.90;;;;;;4992072;28;20109;-49
2023/05/17 02:45:44;;;;;;;7.13;3.20;;;7.90;99.90;;;;;;4991578;28;20454;-49
2023/05/17 02:48:12;;;;;;;5.23;3.00;;;7.90;99.90;;;;;;4990164;28;20507;-49
2023/05/17 02:50:38;;;;;;;9.93;2.97;;;7.80;99.90;;;;;;4990347;28;20035;-49
2023/05/17 02:53:04;;;;;;;7.73;3.13;;;7.80;99.90;;;;;;4990158;28;20128;-49
2023/05/17 02:55:30;;;;;;;9.83;2.70;;;7.80;99.90;;;;;;4990306;28;20503;-48
2023/05/17 02:57:55;;;;;;;10.90;3.30;;;7.70;99.90;;;;;;4990540;28;20093;-49
2023/05/17 03:00:23;;;;;;;8.70;3.10;;;7.70;99.90;;;;;;4989884;28;20037;-49
2023/05/17 03:02:49;;;;;;;8.40;3.13;;;7.70;99.90;;;;;;4990151;28;20109;-49
2023/05/17 03:05:15;;;;;;;8.37;3.30;;;7.80;99.90;;;;;;4990105;28;20110;-51
2023/05/17 03:07:46;;;;;;;5.50;2.93;;;7.80;99.90;;;;;;4974771;28;20039;-52
2023/05/17 03:10:12;;;;;;;11.13;3.63;;;7.80;99.90;;;;;;4991246;28;20027;-49
2023/05/17 03:12:41;;;;;;;8.00;3.50;;;7.90;99.90;;;;;;4989942;28;20053;-49
2023/05/17 03:15:08;;;;;;;9.53;3.10;;;7.80;99.90;;;;;;4990183;28;20516;-50
2023/05/17 03:17:33;;;;;;;8.70;3.40;;;7.80;99.90;;;;;;4990367;28;20031;-51
2023/05/17 03:19:59;;;;;;;7.97;3.23;;;7.80;99.90;;;;;;4990021;28;20514;-54
2023/05/17 03:22:25;;;;;;;8.73;3.63;;;7.80;99.90;;;;;;4989605;28;20022;-49
2023/05/17 03:24:52;;;;;;;6.87;3.30;;;7.80;99.90;;;;;;4990109;28;20073;-49
2023/05/17 03:27:19;;;;;;;8.10;3.23;;;7.80;99.90;;;;;;4989932;28;20030;-49
2023/05/17 03:29:45;;;;;;;8.43;3.40;;;7.70;99.90;;;;;;4989918;28;20441;-50
2023/05/17 03:32:11;;;;;;;6.17;2.77;;;7.70;99.90;;;;;;4989715;28;20031;-51
2023/05/17 03:34:37;;;;;;;8.80;3.10;;;7.70;99.90;;;;;;4990095;28;20057;-50
2023/05/17 03:37:02;;;;;;;7.10;3.67;;;7.70;99.90;;;;;;4991400;28;20491;-49
2023/05/17 03:39:28;;;;;;;9.23;3.47;;;7.70;99.90;;;;;;4989797;28;20069;-49
2023/05/17 03:41:55;;;;;;;9.73;3.87;;;7.80;99.90;;;;;;4990877;28;20531;-49
2023/05/17 03:44:21;;;;;;;8.87;3.30;;;7.90;99.90;;;;;;4989847;28;20034;-49
2023/05/17 03:46:48;;;;;;;9.30;4.13;;;8.00;99.90;;;;;;4989810;28;20439;-53
2023/05/17 03:49:14;;;;;;;10.63;3.33;;;8.10;99.90;;;;;;4989847;28;20056;-50
2023/05/17 03:51:40;;;;;;;12.20;3.97;;;8.10;99.90;;;;;;4989531;28;20169;-49
2023/05/17 03:54:06;;;;;;;7.30;3.17;;;8.10;99.90;;;;;;4989420;28;20038;-50
2023/05/17 03:56:32;;;;;;;12.63;3.77;;;8.10;99.90;;;;;;4990889;28;20022;-49
2023/05/17 03:58:57;;;;;;;7.97;3.37;;;8.20;99.90;;;;;;4993528;28;20041;-49
2023/05/17 04:01:23;;;;;;;8.50;3.83;;;8.20;99.90;;;;;;4993209;28;20407;-51
2023/05/17 04:03:49;;;;;;;12.50;4.83;;;8.20;99.90;;;;;;4993231;28;20078;-49
2023/05/17 04:06:15;;;;;;;8.07;4.23;;;8.20;99.90;;;;;;4993183;28;20031;-50
2023/05/17 04:08:41;;;;;;;9.73;3.50;;;8.30;99.90;;;;;;4993279;28;20037;-50
2023/05/17 04:11:12;;;;;;;12.27;3.93;;;8.30;99.90;;;;;;4994048;28;20034;-49
2023/05/17 04:13:39;;;;;;;12.70;4.67;;;8.30;99.90;;;;;;4992886;28;20062;-48
2023/05/17 04:16:06;;;;;;;13.93;4.67;;;8.40;99.90;;;;;;4993031;28;20030;-49
2023/05/17 04:18:36;;;;;;;15.57;4.70;;;8.40;99.90;;;;;;4994445;28;20049;-49
2023/05/17 04:21:03;;;;;;;12.03;4.97;;;8.40;99.90;;;;;;4994382;28;20023;-49
2023/05/17 04:23:30;;;;;;;10.23;3.90;;;8.50;99.90;;;;;;4992836;28;20383;-48
2023/05/17 04:25:56;;;;;;;13.53;4.57;;;8.50;99.90;;;;;;4993146;28;20456;-48
2023/05/17 04:28:23;;;;;;;10.10;4.53;;;8.60;99.90;;;;;;4992777;28;20044;-48
2023/05/17 04:30:49;;;;;;;10.77;3.40;;;8.60;99.90;;;;;;4994035;28;20077;-49
2023/05/17 04:33:15;;;;;;;9.43;3.70;;;8.70;99.90;;;;;;4994121;28;20031;-48
2023/05/17 04:35:42;;;;;;;7.87;3.90;;;8.70;99.90;;;;;;4994127;28;20030;-49
2023/05/17 04:38:08;;;;;;;10.53;4.23;;;8.70;99.90;;;;;;4993628;28;20068;-48
2023/05/17 04:40:35;;;;;;;11.03;4.00;;;8.70;99.90;;;;;;4992295;28;20026;-49
2023/05/17 04:43:02;;;;;;;12.37;4.63;;;8.80;99.90;;;;;;4992727;28;20102;-48
2023/05/17 04:45:28;;;;;;;13.87;5.70;;;8.80;99.90;;;;;;4992509;28;20026;-48
2023/05/17 04:47:54;;;;;;;15.87;5.37;;;8.90;99.90;;;;;;4992552;28;20026;-49
2023/05/17 04:50:20;;;;;;;14.13;4.37;;;8.90;99.90;;;;;;4992315;28;20406;-48
2023/05/17 04:52:46;;;;;;;12.80;4.07;;;8.90;99.90;;;;;;4993384;28;20030;-48
2023/05/17 04:55:12;;;;;;;10.37;4.50;;;9.00;99.90;;;;;;4992338;28;20084;-51
2023/05/17 04:57:38;;;;;;;11.43;5.03;;;9.00;99.90;;;;;;4992443;28;20038;-50
2023/05/17 05:00:06;;;;;;;12.30;4.63;;;9.00;99.90;;;;;;4992221;28;20491;-48
2023/05/17 05:02:32;;;;;;;18.30;6.80;;;9.10;99.90;;;;;;4992013;28;20042;-49
2023/05/17 05:04:59;;;;;;;20.97;7.20;;;9.20;99.90;;;;;;4992374;28;20038;-49
2023/05/17 05:07:25;;;;;;;20.67;8.10;;;9.30;99.90;;;;;;4992182;28;20034;-48
2023/05/17 05:09:51;;;;;;;15.80;7.57;;;9.40;99.90;;;;;;4993209;28;20050;-50
2023/05/17 05:12:18;;;;;;;18.50;6.73;;;9.50;99.90;;;;;;4991878;28;20041;-48
2023/05/17 05:14:44;;;;;;;15.20;6.00;;;9.50;99.90;;;;;;4992132;28;20030;-50
2023/05/17 05:17:10;;;;;;;15.00;5.30;;;9.50;99.90;;;;;;4993345;28;20033;-49
2023/05/17 05:19:37;;;;;;;15.60;5.00;;;9.50;99.90;;;;;;4993144;28;20037;-50
2023/05/17 05:22:04;;;;;;;13.77;5.27;;;9.50;99.90;;;;;;4991501;28;20069;-50
2023/05/17 05:24:32;;;;;;;12.10;4.23;;;9.50;99.90;;;;;;4991969;28;20058;-50
2023/05/17 05:26:58;;;;;;;11.80;3.63;;;9.50;99.90;;;;;;4991834;28;20132;-48
2023/05/17 05:29:24;;;;;;;6.57;3.33;;;9.60;99.90;;;;;;4991715;28;20037;-48
2023/05/17 05:31:50;;;;;;;11.07;2.70;;;9.70;99.90;;;;;;4992688;28;20026;-49
2023/05/17 05:34:17;;;;;;;7.87;2.53;;;9.80;99.90;;;;;;4991437;28;20061;-49
2023/05/17 05:36:43;;;;;;;11.97;2.43;;;9.90;99.90;;;;;;4991412;28;20045;-49
2023/05/17 05:39:11;;;;;;;9.23;3.03;;;10.00;99.90;;;;;;4991344;28;20037;-50
2023/05/17 05:41:37;;;;;;;10.13;2.60;;;10.10;99.90;;;;;;4991062;28;20557;-49
2023/05/17 05:44:03;;;;;;;9.17;2.17;;;10.10;99.90;;;;;;4991310;28;20023;-49
2023/05/17 05:46:29;;;;;;;11.40;2.60;;;10.20;99.90;;;;;;4991318;28;20062;-49
2023/05/17 05:48:55;;;;;;;11.17;2.80;;;10.30;99.90;;;;;;4991197;28;20037;-49
2023/05/17 05:51:21;;;;;;;7.27;1.87;;;10.40;99.90;;;;;;4990780;28;20117;-49
2023/05/17 05:53:47;;;;;;;5.03;2.37;;;10.50;99.90;;;;;;4991212;28;20031;-48
2023/05/17 05:56:13;;;;;;;6.60;2.73;;;10.60;99.90;;;;;;4992587;28;20030;-50
2023/05/17 05:58:39;;;;;;;7.97;2.20;;;10.50;99.90;;;;;;4991172;28;20026;-49
2023/05/17 06:01:06;;;;;;;11.27;3.10;;;10.60;99.90;;;;;;4990792;28;20045;-49
2023/05/17 06:03:31;;;;;;;6.63;1.97;;;10.60;99.90;;;;;;4992083;28;20418;-50
2023/05/17 06:05:57;;;;;;;4.53;1.97;;;10.60;99.90;;;;;;4992081;28;20041;-49
2023/05/17 06:08:23;;;;;;;7.10;2.00;;;10.70;99.90;;;;;;4992311;28;20380;-49
2023/05/17 06:10:49;;;;;;;9.07;2.07;;;10.70;99.90;;;;;;4992093;28;20034;-50
2023/05/17 06:13:14;;;;;;;5.93;1.77;;;10.80;99.90;;;;;;4991997;28;20105;-49
2023/05/17 06:15:40;;;;;;;7.60;2.03;;;10.90;99.90;;;;;;4992176;28;20410;-53
2023/05/17 06:18:06;;;;;;;5.70;1.47;;;11.00;99.90;;;;;;4991880;28;20030;-50
2023/05/17 06:20:31;;;;;;;8.70;2.03;;;11.10;99.90;;;;;;4991331;28;20406;-51
2023/05/17 06:22:57;;;;;;;5.50;1.90;;;11.10;99.90;;;;;;4990928;28;20026;-49
2023/05/17 06:25:23;;;;;;;4.20;1.43;;;11.20;99.90;;;;;;4991999;28;20030;-50
2023/05/17 06:27:49;;;;;;;5.50;1.23;;;11.30;99.90;;;;;;4991994;28;20062;-50
2023/05/17 06:30:15;;;;;;;5.07;1.40;;;11.40;99.90;;;;;;4991710;28;20094;-51
2023/05/17 06:32:41;;;;;;;8.40;1.70;;;11.40;99.90;;;;;;4991382;28;20031;-50
2023/05/17 06:35:07;;;;;;;5.40;1.87;;;11.60;99.90;;;;;;4991903;28;20391;-49
2023/05/17 06:37:33;;;;;;;5.73;1.20;;;11.70;99.90;;;;;;4991787;28;20030;-51
2023/05/17 06:40:06;;;;;;;7.83;1.70;;;11.80;99.90;;;;;;4991736;28;20037;-50
2023/05/17 06:42:32;;;;;;;5.27;1.37;;;11.70;99.90;;;;;;4991356;28;20030;-48
2023/05/17 06:44:59;;;;;;;6.67;1.70;;;11.70;99.90;;;;;;4991720;28;20605;-48
2023/05/17 06:47:24;;;;;;;4.83;0.97;;;11.70;99.90;;;;;;4991516;28;20037;-49
2023/05/17 06:49:50;;;;;;;5.33;1.30;;;11.80;99.90;;;;;;4991461;28;20110;-49
2023/05/17 06:52:16;;;;;;;7.90;1.50;;;11.90;99.90;;;;;;4991245;28;20022;-48
2023/05/17 06:54:42;;;;;;;5.73;1.83;;;12.00;99.90;;;;;;4991640;28;20118;-49
2023/05/17 06:57:08;;;;;;;6.50;1.40;;;12.10;99.90;;;;;;4991735;28;20105;-49
2023/05/17 06:59:35;;;;;;;4.82;1.33;;;12.20;99.90;;;;;;4991618;28;20042;-51
2023/05/17 07:02:01;;;;;;;5.63;1.20;;;12.00;99.90;;;;;;4991159;28;20113;-48
2023/05/17 07:04:27;;;;;;;6.53;1.13;;;11.80;99.90;;;;;;4991570;28;20157;-49
2023/05/17 07:06:53;;;;;;;5.13;1.40;;;11.70;99.90;;;;;;4991593;28;20037;-48
2023/05/17 07:09:20;;;;;;;8.67;1.47;;;11.70;99.90;;;;;;4991618;28;20034;-50
2023/05/17 07:11:46;;;;;;;6.70;2.10;;;11.80;99.90;;;;;;4991072;28;20045;-51
2023/05/17 07:14:11;;;;;;;6.33;1.77;;;12.00;99.90;;;;;;4991180;28;20027;-48
2023/05/17 07:16:37;;;;;;;3.70;1.10;;;12.20;99.90;;;;;;4991334;28;20038;-48
2023/05/17 07:19:03;;;;;;;3.33;0.90;;;12.20;99.90;;;;;;4991237;28;20026;-48
2023/05/17 07:21:30;;;;;;;8.93;1.25;;;12.30;99.90;;;;;;4990948;28;20383;-49
2023/05/17 07:23:55;;;;;;;6.63;0.85;;;12.40;99.90;;;;;;4991371;28;20054;-49
2023/05/17 07:26:22;;;;;;;3.40;0.70;;;12.40;99.90;;;;;;4991544;28;20447;-50
2023/05/17 07:28:47;;;;;;;5.20;1.42;;;12.50;99.90;;;;;;4991527;28;20053;-49
2023/05/17 07:31:13;;;;;;;4.03;0.90;;;12.50;99.90;;;;;;4991123;28;20406;-50
2023/05/17 07:33:39;;;;;;;6.95;1.20;;;12.60;99.90;;;;;;4993466;28;20234;-50
2023/05/17 07:36:06;;;;;;;6.82;1.00;;;12.70;99.90;;;;;;4995494;28;20438;-50
2023/05/17 07:38:34;;;;;;;6.07;0.93;;;12.60;99.90;;;;;;4995350;28;20306;-49
2023/05/17 07:41:00;;;;;;;3.47;1.00;;;12.70;99.90;;;;;;4995008;28;20041;-50
2023/05/17 07:43:26;;;;;;;3.35;1.00;;;13.00;99.90;;;;;;4994958;28;20446;-49
2023/05/17 07:45:52;;;;;;;4.90;0.90;;;13.20;99.90;;;;;;4995095;28;20081;-48
2023/05/17 07:48:18;;;;;;;3.30;0.82;;;13.30;99.90;;;;;;4995249;28;20117;-49
2023/05/17 07:50:43;;;;;;;3.85;0.90;;;13.30;99.90;;;;;;4995041;28;20084;-50
2023/05/17 07:53:09;;;;;;;5.18;0.88;;;13.30;99.90;;;;;;4994980;28;20030;-49
2023/05/17 07:55:35;;;;;;;5.07;1.10;;;13.30;99.90;;;;;;4994980;28;20034;-50
2023/05/17 07:58:01;;;;;;;3.03;1.15;;;13.30;99.90;;;;;;4994765;28;20026;-50
2023/05/17 08:00:27;;;;;;;7.30;1.40;;;13.30;99.90;;;;;;4994546;28;20084;-51
2023/05/17 08:02:53;;;;;;;4.90;0.80;;;13.20;99.90;;;;;;4994394;28;20030;-49
2023/05/17 08:05:18;;;;;;;5.43;1.15;;;13.10;99.90;;;;;;4994697;28;20034;-49
2023/05/17 08:07:44;;;;;;;4.35;0.82;;;12.90;99.90;;;;;;4994642;28;20034;-50
2023/05/17 08:10:10;;;;;;;5.65;1.40;;;12.90;99.90;;;;;;4994742;28;20022;-50
2023/05/17 08:12:36;;;;;;;5.30;1.10;;;12.80;99.90;;;;;;4994361;28;20494;-50
2023/05/17 08:15:01;;;;;;;4.55;1.52;;;12.90;99.90;;;;;;4994501;28;20438;-49
2023/05/17 08:17:27;;;;;;;8.15;1.63;;;13.20;99.90;;;;;;4994295;28;20053;-48
2023/05/17 08:19:53;;;;;;;8.13;0.80;;;13.40;99.90;;;;;;4994241;28;20029;-49
2023/05/17 08:22:18;;;;;;;3.65;0.93;;;13.20;99.70;;;;;;4993757;28;20022;-48
2023/05/17 08:24:44;;;;;;;5.45;1.15;;;13.10;99.90;;;;;;4994372;28;20030;-50
2023/05/17 08:27:10;;;;;;;5.45;1.20;;;13.00;99.90;;;;;;4994274;28;20029;-49
2023/05/17 08:29:36;;;;;;;5.97;1.10;;;13.10;99.90;;;;;;4994547;28;20306;-50
2023/05/17 08:32:02;;;;;;;5.05;1.05;;;13.10;99.90;;;;;;4993341;28;20038;-49
2023/05/17 08:34:28;;;;;;;5.55;0.80;;;13.00;99.90;;;;;;4994088;28;20092;-48
2023/05/17 08:36:54;;;;;;;3.42;1.20;;;12.90;99.90;;;;;;4994036;28;20026;-48
2023/05/17 08:39:20;;;;;;;4.30;1.00;;;12.70;99.90;;;;;;4993707;28;20049;-48
2023/05/17 08:41:47;;;;;;;5.13;1.20;;;12.90;99.90;;;;;;4993418;28;20034;-51
2023/05/17 08:44:15;;;;;;;5.57;1.20;;;13.10;99.90;;;;;;4992750;28;20019;-49
2023/05/17 08:46:52;;;;;;;6.15;1.05;;;13.30;99.90;;;;;;4993859;28;20026;-49
2023/05/17 08:49:26;;;;;;;5.43;0.90;;;13.60;99.90;;;;;;4993734;28;20057;-50
2023/05/17 08:51:58;;;;;;;5.22;1.08;;;14.00;99.90;;;;;;4993341;28;20097;-49
2023/05/17 08:54:24;;;;;;;5.38;0.80;;;14.20;99.30;;;;;;4993473;28;20045;-49
2023/05/17 08:56:53;;;;;;;4.22;0.73;;;14.20;99.20;;;;;;4993593;28;20034;-49
2023/05/17 08:59:20;;;;;;;5.20;0.98;;;14.20;99.40;;;;;;4993663;28;20471;-49
2023/05/17 09:01:52;;;;;;;3.80;0.85;;;14.20;99.90;;;;;;4993347;28;20034;-51
2023/05/17 09:04:19;;;;;;;3.78;1.20;;;14.20;98.70;;;;;;4993505;28;20100;-53
2023/05/17 09:06:45;;;;;;;6.75;1.42;;;13.90;99.40;;;;;;4993589;28;20518;-50
2023/05/17 09:09:10;;;;;;;4.63;1.05;;;13.80;99.90;;;;;;4993243;28;20022;-50
2023/05/17 09:11:36;;;;;;;5.70;1.00;;;13.60;99.90;;;;;;4993190;28;20030;-51
2023/05/17 09:14:04;;;;;;;4.60;1.00;;;13.50;99.90;;;;;;4993001;28;20022;-49
2023/05/17 09:16:32;;;;;;;4.43;1.08;;;13.40;99.90;;;;;;4993178;28;20095;-49
2023/05/17 09:18:58;;;;;;;4.15;0.93;;;13.40;99.90;;;;;;4993029;28;20065;-49
2023/05/17 09:21:25;;;;;;;4.78;0.90;;;13.30;99.90;;;;;;4992637;28;20026;-49
2023/05/17 09:23:53;;;;;;;6.05;1.20;;;13.20;99.90;;;;;;4991375;28;20126;-49
2023/05/17 09:26:19;;;;;;;3.70;0.85;;;13.10;99.90;;;;;;4993072;28;20057;-49
2023/05/17 09:28:46;;;;;;;2.70;0.82;;;13.20;99.90;;;;;;4992986;28;20027;-50
2023/05/17 09:31:15;;;;;;;7.78;1.63;;;13.40;99.60;;;;;;4992770;28;20035;-48
2023/05/17 09:33:43;;;;;;;6.85;1.00;;;13.70;99.50;;;;;;4992690;28;20037;-49
2023/05/17 09:36:22;;;;;;;6.05;0.95;;;13.60;99.90;;;;;;4992839;28;20169;-49
2023/05/17 09:38:52;;;;;;;5.43;1.48;;;13.40;98.70;;;;;;4992888;28;20480;-48
2023/05/17 09:41:18;;;;;;;2.33;0.82;;;13.40;98.10;;;;;;4992322;28;20042;-50
2023/05/17 09:43:43;;;;;;;4.25;0.93;;;13.30;98.50;;;;;;4992349;28;20037;-50
2023/05/17 09:46:09;;;;;;;4.55;1.02;;;13.40;98.70;;;;;;4992529;28;20332;-48
2023/05/17 09:48:37;;;;;;;6.53;1.00;;;13.60;97.40;;;;;;4992504;28;20042;-49
2023/05/17 09:51:05;;;;;;;6.27;1.53;;;13.80;98.80;;;;;;4992510;28;20030;-49
2023/05/17 09:53:38;;;;;;;7.85;1.45;;;14.00;98.60;;;;;;4992152;28;20038;-48
2023/05/17 09:56:05;;;;;;;4.45;0.93;;;14.00;98.50;;;;;;4992270;28;20042;-48
2023/05/17 09:58:32;;;;;;;4.32;0.95;;;13.90;98.80;;;;;;4992934;28;20031;-48
2023/05/17 10:01:03;;;;;;;6.15;1.10;;;13.90;99.60;;;;;;4991790;28;20034;-48
2023/05/17 10:03:34;;;;;;;2.33;0.80;;;14.00;99.90;;;;;;4992430;28;20036;-49
2023/05/17 10:06:04;;;;;;;3.25;1.10;;;14.10;98.50;;;;;;4992333;28;20030;-48
2023/05/17 10:08:32;;;;;;;5.45;0.90;;;14.30;96.20;;;;;;4992171;28;20530;-49
2023/05/17 10:11:09;;;;;;;2.22;0.70;;;14.40;96.30;;;;;;4991786;28;20122;-51
2023/05/17 10:13:42;;;;;;;5.03;1.25;;;14.50;95.70;;;;;;4991989;28;20066;-50
2023/05/17 10:16:10;;;;;;;2.88;1.00;;;14.60;98.60;;;;;;4991995;28;20422;-50
2023/05/17 10:18:39;;;;;;;5.80;1.27;;;14.60;98.60;;;;;;4992067;28;20061;-51
2023/05/17 10:21:09;;;;;;;3.80;1.25;;;14.70;97.50;;;;;;4991668;28;20042;-49
2023/05/17 10:23:37;;;;;;;4.90;0.80;;;14.80;95.60;;;;;;4991733;28;20034;-49
2023/05/17 10:26:05;;;;;;;4.37;0.83;;;14.70;94.90;;;;;;4992340;28;20035;-49
2023/05/17 10:28:32;;;;;;;2.67;0.80;;;14.60;95.20;;;;;;4992039;28;20392;-48
2023/05/17 10:30:58;;;;;;;6.28;1.20;;;14.80;96.60;;;;;;4991609;28;20040;-49
2023/05/17 10:33:26;;;;;;;7.68;1.40;;;14.90;95.10;;;;;;4991693;28;20035;-48
2023/05/17 10:35:54;;;;;;;4.10;0.80;;;14.90;93.90;;;;;;4991933;28;20041;-49
2023/05/17 10:38:22;;;;;;;4.32;1.00;;;15.10;95.40;;;;;;4992140;28;20084;-52
2023/05/17 10:40:50;;;;;;;4.68;0.73;;;15.20;93.70;;;;;;4991539;28;20038;-48
2023/05/17 10:43:17;;;;;;;5.78;1.40;;;15.30;94.60;;;;;;4991525;28;20034;-51
2023/05/17 10:45:43;;;;;;;5.40;1.00;;;15.50;95.90;;;;;;4991907;28;20050;-49
2023/05/17 10:48:10;;;;;;;3.47;0.80;;;15.40;92.60;;;;;;4992108;28;20113;-51
2023/05/17 10:50:39;;;;;;;3.13;1.02;;;15.30;94.10;;;;;;4991616;28;20388;-49
2023/05/17 10:53:09;;;;;;;3.63;1.15;;;15.20;93.40;;;;;;4991261;28;20034;-52
2023/05/17 10:55:42;;;;;;;4.00;1.10;;;15.20;93.70;;;;;;4991695;28;20042;-50
2023/05/17 10:58:15;;;;;;;3.00;1.17;;;14.90;96.30;;;;;;4991657;28;20069;-49
2023/05/17 11:00:53;;;;;;;3.75;1.30;;;14.80;94.50;;;;;;4991171;28;20109;-49
2023/05/17 11:03:29;;;;;;;5.07;1.37;;;14.70;95.00;;;;;;4991487;28;20026;-49
2023/05/17 11:06:11;;;;;;;2.30;1.10;;;14.60;94.40;;;;;;4991318;28;20117;-47
2023/05/17 11:08:46;;;;;;;1.63;0.60;;;14.60;94.50;;;;;;4996173;28;20033;-48
2023/05/17 11:11:18;;;;;;;4.15;1.42;;;14.60;92.00;;;;;;4997733;28;20483;-49
2023/05/17 11:13:54;;;;;;;4.72;0.80;;;14.70;93.80;;;;;;4997735;28;20039;-51
2023/05/17 11:16:22;;;;;;;1.52;0.85;;;14.90;93.80;;;;;;4997694;28;20387;-52
2023/05/17 11:18:53;;;;;;;2.45;0.73;;;15.00;92.00;;;;;;4996529;28;20065;-48
2023/05/17 11:21:21;;;;;;;7.35;1.50;;;14.90;91.80;;;;;;4997504;28;20034;-48
2023/05/17 11:23:47;;;;;;;4.88;1.20;;;14.90;93.70;;;;;;4997635;28;20489;-52
2023/05/17 11:26:29;;;;;;;3.88;1.00;;;14.80;92.30;;;;;;4997668;28;20030;-50
2023/05/17 11:29:06;;;;;;;6.18;0.95;;;15.00;92.80;;;;;;4997770;28;20109;-48
2023/05/17 11:31:34;;;;;;;4.40;1.15;;;14.90;93.00;;;;;;4997622;28;20041;-48
2023/05/17 11:34:02;;;;;;;4.75;1.27;;;14.90;92.70;;;;;;4997396;28;20030;-49
2023/05/17 11:36:28;;;;;;;3.90;0.77;;;14.70;92.40;;;;;;4997510;28;20116;-49
2023/05/17 11:39:11;;;;;;;5.13;1.27;;;14.70;91.80;;;;;;4997919;28;20437;-49
2023/05/17 11:41:40;;;;;;;3.00;1.08;;;14.90;92.90;;;;;;4997455;28;20041;-49
2023/05/17 11:44:07;;;;;;;3.00;0.70;;;14.90;91.80;;;;;;4997403;28;20433;-50
2023/05/17 11:46:33;;;;;;;4.10;1.00;;;15.10;92.10;;;;;;4997514;28;20118;-50
2023/05/17 11:49:00;;;;;;;4.25;1.13;;;15.10;91.70;;;;;;4997570;28;20058;-50
2023/05/17 11:51:26;;;;;;;2.88;0.95;;;15.10;92.30;;;;;;4997114;28;20550;-48
2023/05/17 11:53:56;;;;;;;4.05;1.10;;;15.10;91.80;;;;;;4997429;28;20030;-49
2023/05/17 11:56:23;;;;;;;4.72;1.20;;;15.30;92.50;;;;;;4997578;28;20057;-52
2023/05/17 11:58:53;;;;;;;3.17;1.20;;;15.20;91.00;;;;;;4997554;28;20045;-50
2023/05/17 12:01:18;;;;;;;4.55;1.08;;;15.30;90.70;;;;;;4996950;28;20372;-51
2023/05/17 12:03:46;;;;;;;3.25;0.93;;;15.30;90.50;;;;;;4997229;28;20033;-49
2023/05/17 12:06:16;;;;;;;3.22;0.90;;;15.20;91.50;;;;;;4997062;28;20045;-53
2023/05/17 12:08:44;;;;;;;2.67;0.95;;;15.20;91.70;;;;;;4997445;28;20645;-49
2023/05/17 12:11:13;;;;;;;4.90;1.10;;;15.00;92.20;;;;;;4997011;28;20030;-50
2023/05/17 12:13:44;;;;;;;3.92;1.10;;;15.00;91.90;;;;;;4997048;28;20034;-49
2023/05/17 12:16:12;;;;;;;6.55;1.05;;;15.10;93.10;;;;;;4997207;28;20042;-50
2023/05/17 12:18:42;;;;;;;2.88;0.90;;;15.20;91.30;;;;;;4996646;28;20065;-50
2023/05/17 12:21:11;;;;;;;2.63;0.80;;;15.10;90.00;;;;;;4994113;28;20038;-47
2023/05/17 12:23:42;;;;;;;5.50;1.45;;;14.90;90.70;;;;;;4993960;28;20023;-48
2023/05/17 12:26:13;;;;;;;2.53;0.95;;;14.90;91.40;;;;;;4994203;28;20026;-50
2023/05/17 12:28:44;;;;;;;5.57;1.20;;;15.00;91.40;;;;;;4994024;28;20036;-50
2023/05/17 12:31:17;;;;;;;5.97;0.85;;;14.70;91.70;;;;;;4994301;28;20038;-49
2023/05/17 12:33:46;;;;;;;5.88;1.10;;;14.70;90.90;;;;;;4993873;28;20479;-49
2023/05/17 12:36:13;;;;;;;3.70;0.90;;;14.80;92.20;;;;;;4993865;28;20492;-48
2023/05/17 12:38:41;;;;;;;3.13;1.10;;;14.90;90.80;;;;;;4993973;28;20395;-48
2023/05/17 12:41:11;;;;;;;3.05;0.95;;;15.10;91.80;;;;;;4993475;28;20038;-48
2023/05/17 12:43:39;;;;;;;1.90;0.80;;;15.10;91.10;;;;;;4993564;28;20026;-53
2023/05/17 12:46:06;;;;;;;6.00;1.70;;;15.20;91.80;;;;;;4993805;28;20023;-49
2023/05/17 12:48:36;;;;;;;3.58;0.80;;;15.30;91.80;;;;;;4993790;28;20049;-48
2023/05/17 12:51:12;;;;;;;3.03;0.82;;;15.50;91.50;;;;;;4993420;28;20030;-49
2023/05/17 12:53:42;;;;;;;4.10;1.58;;;15.70;91.00;;;;;;4992221;28;20117;-49